createdAt,value
2023-03-07T00:00:59.778Z,2.40
2023-03-07T00:03:26.507Z,2.40
2023-03-07T00:06:09.019Z,2.40
2023-03-07T00:08:36.436Z,2.40
2023-03-07T00:11:08.611Z,2.40
2023-03-07T00:13:36.826Z,2.40
2023-03-07T00:16:08.030Z,2.30
2023-03-07T00:18:35.371Z,2.30
2023-03-07T00:21:06.177Z,2.30
2023-03-07T00:23:34.459Z,2.40
2023-03-07T00:26:04.094Z,2.40
2023-03-07T00:28:31.439Z,2.40
2023-03-07T00:31:03.481Z,2.30
2023-03-07T00:33:30.458Z,2.40
2023-03-07T00:36:08.864Z,2.30
2023-03-07T00:38:36.114Z,2.30
2023-03-07T00:41:05.562Z,2.30
2023-03-07T00:43:33.402Z,2.40
2023-03-07T00:46:00.288Z,2.30
2023-03-07T00:48:27.687Z,2.30
2023-03-07T00:50:54.967Z,2.30
2023-03-07T00:53:21.789Z,2.30
2023-03-07T00:55:59.663Z,2.30
2023-03-07T00:58:28.595Z,2.30
2023-03-07T01:00:55.856Z,2.20
2023-03-07T01:03:23.471Z,2.30
2023-03-07T01:05:50.709Z,2.30
2023-03-07T01:08:17.993Z,2.30
2023-03-07T01:10:45.526Z,2.30
2023-03-07T01:13:12.675Z,2.20
2023-03-07T01:15:39.440Z,2.30
2023-03-07T01:18:07.651Z,2.20
2023-03-07T01:20:36.333Z,2.30
2023-03-07T01:23:03.231Z,2.20
2023-03-07T01:25:30.162Z,2.20
2023-03-07T01:27:57.057Z,2.20
2023-03-07T01:30:24.928Z,2.20
2023-03-07T01:32:59.373Z,2.20
2023-03-07T01:35:27.298Z,2.20
2023-03-07T01:37:54.755Z,2.10
2023-03-07T01:40:22.877Z,2.20
2023-03-07T01:42:49.878Z,2.20
2023-03-07T01:45:16.730Z,2.20
2023-03-07T01:47:46.026Z,2.20
2023-03-07T01:50:16.110Z,2.20
2023-03-07T01:52:54.821Z,2.10
2023-03-07T01:55:23.870Z,2.10
2023-03-07T01:57:51.713Z,2.20
2023-03-07T02:00:26.182Z,2.20
2023-03-07T02:03:04.868Z,2.20
2023-03-07T02:05:35.246Z,2.20
2023-03-07T02:08:02.943Z,2.20
2023-03-07T02:10:30.735Z,2.20
2023-03-07T02:12:57.750Z,2.10
2023-03-07T02:15:24.442Z,2.10
2023-03-07T02:17:51.308Z,2.10
2023-03-07T02:20:26.985Z,2.10
2023-03-07T02:22:54.729Z,2.10
2023-03-07T02:25:45.163Z,2.10
2023-03-07T02:28:13.917Z,2.10
2023-03-07T02:30:54.233Z,2.10
2023-03-07T02:33:24.713Z,2.10
2023-03-07T02:35:55.415Z,2.10
2023-03-07T02:38:23.231Z,2.20
2023-03-07T02:40:51.149Z,2.10
2023-03-07T02:43:18.011Z,2.20
2023-03-07T02:45:44.698Z,2.10
2023-03-07T02:48:11.675Z,2.20
2023-03-07T02:50:38.435Z,2.10
2023-03-07T02:53:05.250Z,2.10
2023-03-07T02:55:33.350Z,2.20
2023-03-07T02:58:00.058Z,2.20
2023-03-07T03:00:26.946Z,2.10
2023-03-07T03:02:53.653Z,2.10
2023-03-07T03:05:20.377Z,2.20
2023-03-07T03:07:47.059Z,2.20
2023-03-07T03:10:13.864Z,2.20
2023-03-07T03:12:40.583Z,2.20
2023-03-07T03:15:07.823Z,2.20
2023-03-07T03:17:34.561Z,2.30
2023-03-07T03:20:01.371Z,2.30
2023-03-07T03:22:28.033Z,2.30
2023-03-07T03:24:54.721Z,2.30
2023-03-07T03:27:21.400Z,2.30
2023-03-07T03:29:48.170Z,2.30
2023-03-07T03:32:14.879Z,2.30
2023-03-07T03:34:41.571Z,2.20
2023-03-07T03:37:08.266Z,2.30
2023-03-07T03:39:34.990Z,2.20
2023-03-07T03:42:01.861Z,2.20
2023-03-07T03:44:28.579Z,2.30
2023-03-07T03:46:55.790Z,2.30
2023-03-07T03:49:22.558Z,2.30
2023-03-07T03:51:49.444Z,2.30
2023-03-07T03:54:16.173Z,2.20
2023-03-07T03:56:42.879Z,2.20
2023-03-07T03:59:09.640Z,2.20
2023-03-07T04:01:36.357Z,2.20
2023-03-07T04:04:03.619Z,2.20
2023-03-07T04:06:33.268Z,2.20
2023-03-07T04:09:00.555Z,2.20
2023-03-07T04:11:27.297Z,2.30
2023-03-07T04:13:54.188Z,2.30
2023-03-07T04:16:22.438Z,2.20
2023-03-07T04:18:52.348Z,2.30
2023-03-07T04:21:19.819Z,2.30
2023-03-07T04:23:46.531Z,2.30
2023-03-07T04:26:13.269Z,2.30
2023-03-07T04:28:50.459Z,2.30
2023-03-07T04:31:19.442Z,2.30
2023-03-07T04:33:46.672Z,2.30
2023-03-07T04:36:14.007Z,2.30
2023-03-07T04:38:42.030Z,2.30
2023-03-07T04:41:16.573Z,2.30
2023-03-07T04:43:43.441Z,2.30
2023-03-07T04:46:11.278Z,2.30
2023-03-07T04:48:38.009Z,2.30
2023-03-07T04:51:05.123Z,2.30
2023-03-07T04:53:32.002Z,2.40
2023-03-07T04:55:59.825Z,2.30
2023-03-07T04:58:30.298Z,2.30
2023-03-07T05:00:57.574Z,2.30
2023-03-07T05:03:26.478Z,2.30
2023-03-07T05:05:53.431Z,2.30
2023-03-07T05:08:21.254Z,2.30
2023-03-07T05:10:47.973Z,2.40
2023-03-07T05:13:14.816Z,2.30
2023-03-07T05:15:41.553Z,2.40
2023-03-07T05:18:08.278Z,2.40
2023-03-07T05:20:35.023Z,2.40
2023-03-07T05:23:01.777Z,2.40
2023-03-07T05:25:28.630Z,2.40
2023-03-07T05:27:55.482Z,2.40
2023-03-07T05:30:22.324Z,2.40
2023-03-07T05:32:49.025Z,2.40
2023-03-07T05:35:16.300Z,2.40
2023-03-07T05:37:43.087Z,2.40
2023-03-07T05:40:10.565Z,2.50
2023-03-07T05:42:37.472Z,2.40
2023-03-07T05:45:05.886Z,2.40
2023-03-07T05:47:32.788Z,2.40
2023-03-07T05:49:59.549Z,2.40
2023-03-07T05:52:27.042Z,2.40
2023-03-07T05:54:53.758Z,2.40
2023-03-07T05:57:20.794Z,2.40
2023-03-07T05:59:47.496Z,2.40
2023-03-07T06:02:14.378Z,2.40
2023-03-07T06:04:41.172Z,2.40
2023-03-07T06:07:07.905Z,2.40
2023-03-07T06:09:34.882Z,2.40
2023-03-07T06:12:01.595Z,2.40
2023-03-07T06:14:28.304Z,2.40
2023-03-07T06:16:55.148Z,2.40
2023-03-07T06:19:22.037Z,2.40
2023-03-07T06:21:48.783Z,2.40
2023-03-07T06:24:15.505Z,2.40
2023-03-07T06:26:42.189Z,2.40
2023-03-07T06:29:08.887Z,2.40
2023-03-07T06:31:35.627Z,2.40
2023-03-07T06:34:02.425Z,2.40
2023-03-07T06:36:29.246Z,2.40
2023-03-07T06:38:56.201Z,2.40
2023-03-07T06:41:22.910Z,2.50
2023-03-07T06:43:53.524Z,2.60
2023-03-07T06:46:21.548Z,2.60
2023-03-07T06:48:49.791Z,2.50
2023-03-07T06:51:16.453Z,2.60
2023-03-07T06:53:43.178Z,2.50
2023-03-07T06:56:09.891Z,2.50
2023-03-07T06:58:36.560Z,2.60
2023-03-07T07:01:03.253Z,2.50
2023-03-07T07:03:30.038Z,2.50
2023-03-07T07:05:56.771Z,2.40
2023-03-07T07:08:23.511Z,2.40
2023-03-07T07:10:50.294Z,2.40
2023-03-07T07:13:16.987Z,2.40
2023-03-07T07:15:43.753Z,2.40
2023-03-07T07:18:13.056Z,2.50
2023-03-07T07:20:39.805Z,2.50
2023-03-07T07:23:06.532Z,2.50
2023-03-07T07:25:33.336Z,2.50
2023-03-07T07:28:00.020Z,2.50
2023-03-07T07:30:27.072Z,2.50
2023-03-07T07:32:53.885Z,2.60
2023-03-07T07:35:20.658Z,2.60
2023-03-07T07:37:47.444Z,2.60
2023-03-07T07:40:15.232Z,2.60
2023-03-07T07:42:43.304Z,2.70
2023-03-07T07:45:10.581Z,2.70
2023-03-07T07:47:37.344Z,2.70
2023-03-07T07:50:04.440Z,2.70
2023-03-07T07:52:31.202Z,2.80
2023-03-07T07:54:57.880Z,2.80
2023-03-07T07:57:24.567Z,2.80
2023-03-07T07:59:51.407Z,2.90
2023-03-07T08:02:18.099Z,2.90
2023-03-07T08:04:46.033Z,2.90
2023-03-07T08:07:14.109Z,2.90
2023-03-07T08:09:40.824Z,2.90
2023-03-07T08:12:11.014Z,2.90
2023-03-07T08:14:37.733Z,2.90
2023-03-07T08:17:04.515Z,2.90
2023-03-07T08:19:31.415Z,2.90
2023-03-07T08:21:58.898Z,2.90
2023-03-07T08:24:39.746Z,2.90
2023-03-07T08:27:07.073Z,2.90
2023-03-07T08:29:35.234Z,2.90
2023-03-07T08:32:04.164Z,3.00
2023-03-07T08:34:32.776Z,3.00
2023-03-07T08:36:59.477Z,3.00
2023-03-07T08:39:26.281Z,3.10
2023-03-07T08:41:55.252Z,3.10
2023-03-07T08:44:21.955Z,3.20
2023-03-07T08:46:48.665Z,3.20
2023-03-07T08:49:15.386Z,3.10
2023-03-07T08:51:42.973Z,3.20
2023-03-07T08:54:11.667Z,3.20
2023-03-07T08:56:38.668Z,3.20
2023-03-07T08:59:05.517Z,3.30
2023-03-07T09:01:32.544Z,3.40
2023-03-07T09:03:59.633Z,3.50
2023-03-07T09:06:27.357Z,3.50
2023-03-07T09:08:54.248Z,3.60
2023-03-07T09:11:22.104Z,3.70
2023-03-07T09:13:52.832Z,3.70
2023-03-07T09:16:20.778Z,3.90
2023-03-07T09:18:48.123Z,3.90
2023-03-07T09:21:14.851Z,3.90
2023-03-07T09:23:43.225Z,4.00
2023-03-07T09:26:10.275Z,4.20
2023-03-07T09:28:37.001Z,4.20
2023-03-07T09:31:08.720Z,4.30
2023-03-07T09:33:35.780Z,4.30
2023-03-07T09:36:09.459Z,4.50
2023-03-07T09:38:38.320Z,4.60
2023-03-07T09:41:23.150Z,4.60
2023-03-07T09:44:05.311Z,4.50
2023-03-07T09:46:50.699Z,4.60
2023-03-07T09:49:26.978Z,4.60
2023-03-07T09:51:58.905Z,4.70
2023-03-07T09:54:41.173Z,4.80
2023-03-07T09:57:17.783Z,4.90
2023-03-07T09:59:53.759Z,4.90
2023-03-07T10:02:28.582Z,4.80
2023-03-07T10:05:23.594Z,4.90
2023-03-07T10:07:50.746Z,4.70
2023-03-07T10:10:24.235Z,4.80
2023-03-07T10:13:30.969Z,4.80
2023-03-07T10:16:11.124Z,4.80
2023-03-07T10:19:13.123Z,4.80
2023-03-07T10:21:47.842Z,4.80
2023-03-07T10:24:14.512Z,4.80
2023-03-07T10:26:49.561Z,4.80
2023-03-07T10:29:22.707Z,4.80
2023-03-07T10:31:57.068Z,4.70
2023-03-07T10:34:32.022Z,4.80
2023-03-07T10:37:14.199Z,4.80
2023-03-07T10:39:54.256Z,4.90
2023-03-07T10:42:25.210Z,4.80
2023-03-07T10:44:52.214Z,4.80
2023-03-07T10:47:23.038Z,4.80
2023-03-07T10:49:56.031Z,4.80
2023-03-07T10:52:35.414Z,4.80
2023-03-07T10:55:39.428Z,4.80
2023-03-07T10:58:26.689Z,5.00
2023-03-07T11:01:08.935Z,5.20
2023-03-07T11:03:52.139Z,5.30
2023-03-07T11:06:44.702Z,5.30
2023-03-07T11:09:17.317Z,5.30
2023-03-07T11:12:11.197Z,5.20
2023-03-07T11:14:47.967Z,5.20
2023-03-07T11:17:41.121Z,5.20
2023-03-07T11:20:30.707Z,5.10
2023-03-07T11:23:27.504Z,5.00
2023-03-07T11:25:56.575Z,5.10
2023-03-07T11:28:33.788Z,5.00
2023-03-07T11:31:29.192Z,5.00
2023-03-07T11:34:14.249Z,5.00
2023-03-07T11:36:44.110Z,5.00
2023-03-07T11:39:30.390Z,5.00
2023-03-07T11:42:04.864Z,5.00
2023-03-07T11:44:35.497Z,5.10
2023-03-07T11:47:09.193Z,5.20
2023-03-07T11:50:07.091Z,5.20
2023-03-07T11:52:58.759Z,5.30
2023-03-07T11:55:25.563Z,5.20
2023-03-07T11:58:13.553Z,5.30
2023-03-07T12:01:11.883Z,5.30
2023-03-07T12:04:03.022Z,5.40
2023-03-07T12:06:49.531Z,5.50
2023-03-07T12:09:23.784Z,5.60
2023-03-07T12:12:13.925Z,5.80
2023-03-07T12:15:06.532Z,5.90
2023-03-07T12:17:48.468Z,6.00
2023-03-07T12:20:47.822Z,6.10
2023-03-07T12:23:38.980Z,6.10
2023-03-07T12:26:14.728Z,6.20
2023-03-07T12:28:52.825Z,6.30
2023-03-07T12:31:32.236Z,6.30
2023-03-07T12:34:16.593Z,6.30
2023-03-07T12:36:57.778Z,6.30
2023-03-07T12:39:41.592Z,6.40
2023-03-07T12:42:23.551Z,6.60
2023-03-07T12:44:56.322Z,6.50
2023-03-07T12:47:35.024Z,6.50
2023-03-07T12:50:12.160Z,6.40
2023-03-07T12:53:09.045Z,6.20
2023-03-07T12:55:46.665Z,6.20
2023-03-07T12:58:24.946Z,6.20
2023-03-07T13:00:59.681Z,6.20
2023-03-07T13:03:52.547Z,6.20
2023-03-07T13:06:23.316Z,6.20
2023-03-07T13:08:54.305Z,6.10
2023-03-07T13:11:26.206Z,6.10
2023-03-07T13:13:59.911Z,6.20
2023-03-07T13:16:45.825Z,6.20
2023-03-07T13:19:34.175Z,6.20
2023-03-07T13:22:11.037Z,6.10
2023-03-07T13:24:42.163Z,6.20
2023-03-07T13:27:17.968Z,6.20
2023-03-07T13:30:05.927Z,6.20
2023-03-07T13:32:51.403Z,6.20
2023-03-07T13:35:30.590Z,6.20
2023-03-07T13:38:03.708Z,6.30
2023-03-07T13:40:46.768Z,6.20
2023-03-07T13:43:20.285Z,6.30
2023-03-07T13:46:19.066Z,6.30
2023-03-07T13:48:48.920Z,6.40
2023-03-07T13:51:17.201Z,6.40
2023-03-07T13:53:51.025Z,6.40
2023-03-07T13:56:25.253Z,6.50
2023-03-07T13:59:18.391Z,6.50
2023-03-07T14:01:50.432Z,6.60
2023-03-07T14:04:29.683Z,6.60
2023-03-07T14:07:25.726Z,6.50
2023-03-07T14:10:21.886Z,6.50
2023-03-07T14:13:13.498Z,6.60
2023-03-07T14:15:43.482Z,6.50
2023-03-07T14:18:13.133Z,6.60
2023-03-07T14:21:02.080Z,6.60
2023-03-07T14:24:07.063Z,6.60
2023-03-07T14:26:37.361Z,6.60
2023-03-07T14:29:16.411Z,6.60
2023-03-07T14:31:44.726Z,6.60
2023-03-07T14:34:31.498Z,6.50
2023-03-07T14:37:05.755Z,6.60
2023-03-07T14:39:44.208Z,6.50
2023-03-07T14:42:40.466Z,6.50
2023-03-07T14:45:28.452Z,6.50
2023-03-07T14:48:25.350Z,6.50
2023-03-07T14:50:53.603Z,6.50
2023-03-07T14:53:23.663Z,6.50
2023-03-07T14:55:52.420Z,6.40
2023-03-07T14:58:23.042Z,6.40
2023-03-07T15:01:04.831Z,6.40
2023-03-07T15:03:32.900Z,6.20
2023-03-07T15:06:02.571Z,6.30
2023-03-07T15:08:31.978Z,6.30
2023-03-07T15:11:13.507Z,6.40
2023-03-07T15:13:48.780Z,6.40
2023-03-07T15:16:24.057Z,6.40
2023-03-07T15:19:14.770Z,6.50
2023-03-07T15:21:46.500Z,6.50
2023-03-07T15:24:25.203Z,6.20
2023-03-07T15:26:55.101Z,6.30
2023-03-07T15:29:23.813Z,6.30
2023-03-07T15:31:58.299Z,6.20
2023-03-07T15:34:35.970Z,6.30
2023-03-07T15:37:24.794Z,6.30
2023-03-07T15:40:23.187Z,6.30
2023-03-07T15:42:53.098Z,6.20
2023-03-07T15:45:30.845Z,6.20
2023-03-07T15:48:01.541Z,6.20
2023-03-07T15:50:29.703Z,6.10
2023-03-07T15:53:03.280Z,6.00
2023-03-07T15:55:31.208Z,5.90
2023-03-07T15:58:02.295Z,6.00
2023-03-07T16:00:34.328Z,6.00
2023-03-07T16:03:25.995Z,5.90
2023-03-07T16:05:54.764Z,5.90
2023-03-07T16:08:22.323Z,5.90
2023-03-07T16:10:52.310Z,5.90
2023-03-07T16:13:22.205Z,5.80
2023-03-07T16:16:05.792Z,5.70
2023-03-07T16:18:33.027Z,5.80
2023-03-07T16:21:00.380Z,5.80
2023-03-07T16:23:31.390Z,5.70
2023-03-07T16:25:59.975Z,5.80
2023-03-07T16:28:27.138Z,5.70
2023-03-07T16:30:55.767Z,5.70
2023-03-07T16:33:23.876Z,5.70
2023-03-07T16:35:51.847Z,5.50
2023-03-07T16:38:20.191Z,5.50
2023-03-07T16:40:47.668Z,5.50
2023-03-07T16:43:35.174Z,5.40
2023-03-07T16:46:07.503Z,5.40
2023-03-07T16:48:35.482Z,5.40
2023-03-07T16:51:04.914Z,5.40
2023-03-07T16:53:33.290Z,5.50
2023-03-07T16:56:00.430Z,5.30
2023-03-07T16:58:34.151Z,5.40
2023-03-07T17:01:01.723Z,5.30
2023-03-07T17:03:31.649Z,5.30
2023-03-07T17:05:58.679Z,5.30
2023-03-07T17:08:25.400Z,5.30
2023-03-07T17:10:53.769Z,5.20
2023-03-07T17:13:21.181Z,5.20
2023-03-07T17:15:48.467Z,5.10
2023-03-07T17:18:15.297Z,5.00
2023-03-07T17:20:42.315Z,5.00
2023-03-07T17:23:09.107Z,4.90
2023-03-07T17:25:35.980Z,4.90
2023-03-07T17:28:13.208Z,4.80
2023-03-07T17:30:43.259Z,4.80
2023-03-07T17:33:11.209Z,4.80
2023-03-07T17:35:38.996Z,4.80
2023-03-07T17:38:07.822Z,4.70
2023-03-07T17:40:34.823Z,4.60
2023-03-07T17:43:03.560Z,4.60
2023-03-07T17:45:30.513Z,4.60
2023-03-07T17:47:57.508Z,4.50
2023-03-07T17:50:25.340Z,4.50
2023-03-07T17:52:53.431Z,4.50
2023-03-07T17:55:24.922Z,4.40
2023-03-07T17:57:52.201Z,4.40
2023-03-07T18:00:21.413Z,4.50
2023-03-07T18:02:49.263Z,4.40
2023-03-07T18:05:19.534Z,4.40
2023-03-07T18:07:46.909Z,4.40
2023-03-07T18:10:13.686Z,4.40
2023-03-07T18:12:40.811Z,4.40
2023-03-07T18:15:13.001Z,4.40
2023-03-07T18:17:48.220Z,4.40
2023-03-07T18:20:19.536Z,4.40
2023-03-07T18:22:46.461Z,4.40
2023-03-07T18:25:16.034Z,4.50
2023-03-07T18:27:43.467Z,4.50
2023-03-07T18:30:12.150Z,4.50
2023-03-07T18:32:40.418Z,4.50
2023-03-07T18:35:08.078Z,4.40
2023-03-07T18:37:34.996Z,4.40
2023-03-07T18:40:02.846Z,4.40
2023-03-07T18:42:30.588Z,4.30
2023-03-07T18:44:57.487Z,4.30
2023-03-07T18:47:24.312Z,4.20
2023-03-07T18:49:53.949Z,4.20
2023-03-07T18:52:21.702Z,4.20
2023-03-07T18:54:49.415Z,4.20
2023-03-07T18:57:17.161Z,4.20
2023-03-07T18:59:44.288Z,4.20
2023-03-07T19:02:12.222Z,4.10
2023-03-07T19:04:41.077Z,4.20
2023-03-07T19:07:07.828Z,4.10
2023-03-07T19:09:34.590Z,4.10
2023-03-07T19:12:01.880Z,4.10
2023-03-07T19:14:28.817Z,4.10
2023-03-07T19:16:56.171Z,4.10
2023-03-07T19:19:23.656Z,4.00
2023-03-07T19:21:51.805Z,4.10
2023-03-07T19:24:18.545Z,4.10
2023-03-07T19:26:45.348Z,4.10
2023-03-07T19:29:13.343Z,4.10
2023-03-07T19:31:44.316Z,4.10
2023-03-07T19:34:12.109Z,4.10
2023-03-07T19:36:45.952Z,4.10
2023-03-07T19:39:31.564Z,4.10
2023-03-07T19:41:58.287Z,4.00
2023-03-07T19:44:25.008Z,4.00
2023-03-07T19:46:54.476Z,3.90
2023-03-07T19:49:23.252Z,4.00
2023-03-07T19:51:50.608Z,4.00
2023-03-07T19:54:17.503Z,4.00
2023-03-07T19:56:45.598Z,4.00
2023-03-07T19:59:15.820Z,4.00
2023-03-07T20:01:43.369Z,4.00
2023-03-07T20:04:12.754Z,3.90
2023-03-07T20:06:42.209Z,4.00
2023-03-07T20:09:12.986Z,4.00
2023-03-07T20:11:43.203Z,4.00
2023-03-07T20:14:10.873Z,3.90
2023-03-07T20:16:38.984Z,3.90
2023-03-07T20:19:08.689Z,4.00
2023-03-07T20:21:36.704Z,4.00
2023-03-07T20:24:04.801Z,4.00
2023-03-07T20:26:34.473Z,4.00
2023-03-07T20:29:04.435Z,3.90
2023-03-07T20:31:31.515Z,3.90
2023-03-07T20:34:00.287Z,3.90
2023-03-07T20:36:32.160Z,3.90
2023-03-07T20:39:01.836Z,3.80
2023-03-07T20:41:30.753Z,3.80
2023-03-07T20:44:04.690Z,3.90
2023-03-07T20:46:31.912Z,4.00
2023-03-07T20:49:00.317Z,4.00
2023-03-07T20:51:29.891Z,4.00
2023-03-07T20:53:59.500Z,4.10
2023-03-07T20:56:30.389Z,4.20
2023-03-07T20:58:57.768Z,4.20
2023-03-07T21:01:26.745Z,4.20
2023-03-07T21:03:55.539Z,4.30
2023-03-07T21:06:22.679Z,4.30
2023-03-07T21:08:50.118Z,4.30
2023-03-07T21:11:20.070Z,4.20
2023-03-07T21:13:49.969Z,4.00
2023-03-07T21:16:23.000Z,4.00
2023-03-07T21:18:50.327Z,3.90
2023-03-07T21:21:20.220Z,4.00
2023-03-07T21:23:47.836Z,4.10
2023-03-07T21:26:22.717Z,4.00
2023-03-07T21:28:52.859Z,4.00
2023-03-07T21:31:22.218Z,4.00
2023-03-07T21:33:52.360Z,4.00
2023-03-07T21:36:20.206Z,4.00
2023-03-07T21:38:48.152Z,4.00
2023-03-07T21:41:19.805Z,3.90
2023-03-07T21:43:47.639Z,3.90
2023-03-07T21:46:16.257Z,4.00
2023-03-07T21:48:45.756Z,4.00
2023-03-07T21:51:12.706Z,4.10
2023-03-07T21:53:39.717Z,4.10
2023-03-07T21:56:09.731Z,4.00
2023-03-07T21:58:37.383Z,4.00
2023-03-07T22:01:19.185Z,4.00
2023-03-07T22:03:46.300Z,4.10
2023-03-07T22:06:15.001Z,4.10
2023-03-07T22:08:42.190Z,4.10
2023-03-07T22:11:11.113Z,4.10
2023-03-07T22:13:40.031Z,4.10
2023-03-07T22:16:12.499Z,4.10
2023-03-07T22:18:40.497Z,4.10
2023-03-07T22:21:13.699Z,4.10
2023-03-07T22:23:40.616Z,4.10
2023-03-07T22:26:10.021Z,4.20
2023-03-07T22:28:38.795Z,4.10
2023-03-07T22:31:09.475Z,4.10
2023-03-07T22:33:36.610Z,4.10
2023-03-07T22:36:05.392Z,4.10
2023-03-07T22:38:32.259Z,4.10
2023-03-07T22:41:10.145Z,4.20
2023-03-07T22:43:37.378Z,4.20
2023-03-07T22:46:04.939Z,4.20
2023-03-07T22:48:33.260Z,4.20
2023-03-07T22:51:00.230Z,4.20
2023-03-07T22:53:31.742Z,4.20
2023-03-07T22:55:59.552Z,4.20
2023-03-07T22:58:28.409Z,4.20
2023-03-07T23:00:56.424Z,4.20
2023-03-07T23:03:24.396Z,4.30
2023-03-07T23:05:51.358Z,4.30
2023-03-07T23:08:18.418Z,4.30
2023-03-07T23:10:46.189Z,4.30
2023-03-07T23:13:13.005Z,4.30
2023-03-07T23:15:42.075Z,4.40
2023-03-07T23:18:09.906Z,4.40
2023-03-07T23:20:39.604Z,4.40
2023-03-07T23:23:06.831Z,4.30
2023-03-07T23:25:33.701Z,4.40
2023-03-07T23:28:00.564Z,4.30
2023-03-07T23:30:27.317Z,4.40
2023-03-07T23:32:55.587Z,4.40
2023-03-07T23:35:23.388Z,4.40
2023-03-07T23:37:50.045Z,4.30
2023-03-07T23:40:16.803Z,4.30
2023-03-07T23:42:44.175Z,4.30
2023-03-07T23:45:11.300Z,4.40
2023-03-07T23:47:39.990Z,4.30
2023-03-07T23:50:09.125Z,4.30
2023-03-07T23:52:36.861Z,4.40
2023-03-07T23:55:06.337Z,4.40
2023-03-07T23:57:33.045Z,4.30
2023-03-07T23:59:59.707Z,4.30
